createdAt,value
2019-02-20T00:02:09.535Z,7.50
2019-02-20T00:04:38.123Z,7.60
2019-02-20T00:07:06.742Z,7.60
2019-02-20T00:09:35.363Z,7.60
2019-02-20T00:12:03.985Z,7.60
2019-02-20T00:14:32.590Z,7.60
2019-02-20T00:17:01.204Z,7.60
2019-02-20T00:19:29.784Z,7.60
2019-02-20T00:21:58.380Z,7.50
2019-02-20T00:24:26.978Z,7.60
2019-02-20T00:26:55.561Z,7.60
2019-02-20T00:29:24.161Z,7.60
2019-02-20T00:31:52.784Z,7.60
2019-02-20T00:34:21.393Z,7.60
2019-02-20T00:36:50.037Z,7.60
2019-02-20T00:39:18.605Z,7.60
2019-02-20T00:41:47.191Z,7.60
2019-02-20T00:44:37.784Z,7.50
2019-02-20T00:47:25.536Z,7.60
2019-02-20T00:49:54.510Z,7.50
2019-02-20T00:52:29.749Z,7.60
2019-02-20T00:54:58.366Z,7.50
2019-02-20T00:57:26.969Z,7.50
2019-02-20T00:59:55.578Z,7.50
2019-02-20T01:02:24.177Z,7.60
2019-02-20T01:04:52.767Z,7.50
2019-02-20T01:07:21.362Z,7.50
2019-02-20T01:09:49.977Z,7.50
2019-02-20T01:12:18.574Z,7.50
2019-02-20T01:14:47.155Z,7.50
2019-02-20T01:17:16.216Z,7.60
2019-02-20T01:19:44.817Z,7.60
2019-02-20T01:22:15.423Z,7.50
2019-02-20T01:24:44.421Z,7.50
2019-02-20T01:27:13.053Z,7.50
2019-02-20T01:29:41.680Z,7.60
2019-02-20T01:32:10.292Z,7.50
2019-02-20T01:34:38.872Z,7.60
2019-02-20T01:37:07.451Z,7.60
2019-02-20T01:39:36.079Z,7.60
2019-02-20T01:42:05.072Z,7.60
2019-02-20T01:44:33.682Z,7.60
2019-02-20T01:47:02.329Z,7.50
2019-02-20T01:49:30.923Z,7.60
2019-02-20T01:51:59.528Z,7.50
2019-02-20T01:54:28.116Z,7.50
2019-02-20T01:56:57.285Z,7.50
2019-02-20T01:59:26.001Z,7.50
2019-02-20T02:01:54.602Z,7.50
2019-02-20T02:04:23.214Z,7.40
2019-02-20T02:06:51.855Z,7.50
2019-02-20T02:09:20.446Z,7.40
2019-02-20T02:11:49.028Z,7.30
2019-02-20T02:14:17.613Z,7.30
2019-02-20T02:16:46.191Z,7.30
2019-02-20T02:19:14.809Z,7.20
2019-02-20T02:21:43.457Z,7.20
2019-02-20T02:24:12.055Z,7.20
2019-02-20T02:26:40.688Z,7.10
2019-02-20T02:29:09.284Z,7.10
2019-02-20T02:31:37.896Z,7.00
2019-02-20T02:34:06.487Z,7.10
2019-02-20T02:36:35.084Z,7.00
2019-02-20T02:39:05.935Z,7.00
2019-02-20T02:41:36.605Z,6.90
2019-02-20T02:44:05.208Z,6.90
2019-02-20T02:46:33.796Z,7.00
2019-02-20T02:49:05.584Z,6.90
2019-02-20T02:51:34.184Z,6.90
2019-02-20T02:54:02.934Z,6.90
2019-02-20T02:56:31.561Z,6.80
2019-02-20T02:59:00.132Z,6.80
2019-02-20T03:01:28.737Z,6.90
2019-02-20T03:03:57.449Z,6.90
2019-02-20T03:06:26.084Z,6.90
2019-02-20T03:08:54.692Z,6.80
2019-02-20T03:11:23.280Z,6.80
2019-02-20T03:13:51.892Z,6.80
2019-02-20T03:16:20.509Z,6.80
2019-02-20T03:18:49.110Z,6.80
2019-02-20T03:21:17.721Z,6.80
2019-02-20T03:23:46.418Z,6.70
2019-02-20T03:26:15.100Z,6.70
2019-02-20T03:28:43.727Z,6.60
2019-02-20T03:31:12.319Z,6.60
2019-02-20T03:33:40.934Z,6.60
2019-02-20T03:36:09.598Z,6.50
2019-02-20T03:38:38.181Z,6.50
2019-02-20T03:41:06.803Z,6.50
2019-02-20T03:43:35.430Z,6.40
2019-02-20T03:46:06.522Z,6.40
2019-02-20T03:48:35.100Z,6.30
2019-02-20T03:51:03.764Z,6.20
2019-02-20T03:53:32.384Z,6.20
2019-02-20T03:56:01.622Z,6.10
2019-02-20T03:58:30.200Z,6.10
2019-02-20T04:00:58.813Z,6.10
2019-02-20T04:03:27.724Z,6.10
2019-02-20T04:05:56.301Z,6.00
2019-02-20T04:08:24.913Z,5.90
2019-02-20T04:10:53.523Z,5.90
2019-02-20T04:13:22.115Z,5.90
2019-02-20T04:15:50.748Z,5.80
2019-02-20T04:18:19.330Z,5.80
2019-02-20T04:20:48.009Z,5.80
2019-02-20T04:23:16.599Z,5.70
2019-02-20T04:25:45.214Z,5.70
2019-02-20T04:28:13.793Z,5.70
2019-02-20T04:30:42.421Z,5.70
2019-02-20T04:33:11.030Z,5.70
2019-02-20T04:35:39.613Z,5.70
2019-02-20T04:38:08.223Z,5.70
2019-02-20T04:40:36.793Z,5.80
2019-02-20T04:43:05.377Z,5.80
2019-02-20T04:45:34.000Z,5.80
2019-02-20T04:48:03.668Z,5.90
2019-02-20T04:50:32.283Z,5.90
2019-02-20T04:53:00.922Z,5.90
2019-02-20T04:55:29.572Z,6.00
2019-02-20T04:58:20.617Z,6.00
2019-02-20T05:00:49.233Z,6.00
2019-02-20T05:03:17.837Z,6.00
2019-02-20T05:05:46.453Z,6.00
2019-02-20T05:08:16.532Z,6.10
2019-02-20T05:10:48.125Z,6.10
2019-02-20T05:13:16.822Z,6.10
2019-02-20T05:15:45.425Z,6.20
2019-02-20T05:18:15.197Z,6.20
2019-02-20T05:20:43.801Z,6.20
2019-02-20T05:23:12.385Z,6.30
2019-02-20T05:25:41.094Z,6.30
2019-02-20T05:28:09.743Z,6.30
2019-02-20T05:30:38.351Z,6.30
2019-02-20T05:33:06.989Z,6.40
2019-02-20T05:35:35.562Z,6.40
2019-02-20T05:38:04.203Z,6.40
2019-02-20T05:40:32.788Z,6.40
2019-02-20T05:43:01.541Z,6.40
2019-02-20T05:45:30.115Z,6.40
2019-02-20T05:47:58.732Z,6.40
2019-02-20T05:50:27.376Z,6.40
2019-02-20T05:52:56.001Z,6.40
2019-02-20T05:55:24.769Z,6.40
2019-02-20T05:57:53.351Z,6.50
2019-02-20T06:00:22.069Z,6.50
2019-02-20T06:02:50.656Z,6.50
2019-02-20T06:05:19.493Z,6.50
2019-02-20T06:07:48.068Z,6.50
2019-02-20T06:10:19.433Z,6.50
2019-02-20T06:12:48.071Z,6.50
2019-02-20T06:15:18.223Z,6.50
2019-02-20T06:17:47.165Z,6.50
2019-02-20T06:20:15.787Z,6.50
2019-02-20T06:22:44.373Z,6.50
2019-02-20T06:25:13.090Z,6.50
2019-02-20T06:27:41.695Z,6.50
2019-02-20T06:30:10.414Z,6.50
2019-02-20T06:32:39.049Z,6.50
2019-02-20T06:35:07.621Z,6.50
2019-02-20T06:37:36.196Z,6.50
2019-02-20T06:40:04.843Z,6.50
2019-02-20T06:42:33.445Z,6.50
2019-02-20T06:45:02.136Z,6.60
2019-02-20T06:47:30.736Z,6.60
2019-02-20T06:50:01.047Z,6.60
2019-02-20T06:52:29.627Z,6.60
2019-02-20T06:54:58.217Z,6.60
2019-02-20T06:57:26.805Z,6.60
2019-02-20T06:59:55.431Z,6.60
2019-02-20T07:02:24.431Z,6.60
2019-02-20T07:05:45.973Z,6.60
2019-02-20T07:08:52.173Z,6.70
2019-02-20T07:11:46.611Z,6.70
2019-02-20T07:15:00.537Z,6.70
2019-02-20T07:18:12.668Z,6.70
2019-02-20T07:21:11.206Z,6.70
2019-02-20T07:24:18.034Z,6.80
2019-02-20T07:27:30.512Z,6.80
2019-02-20T07:30:05.190Z,6.80
2019-02-20T07:32:33.956Z,6.80
2019-02-20T07:35:02.677Z,6.80
2019-02-20T07:37:31.308Z,6.80
2019-02-20T07:39:59.930Z,6.80
2019-02-20T07:42:28.556Z,6.90
2019-02-20T07:44:57.155Z,7.00
2019-02-20T07:47:25.780Z,7.00
2019-02-20T07:49:54.506Z,7.00
2019-02-20T07:52:23.120Z,7.10
2019-02-20T07:54:52.125Z,7.10
2019-02-20T07:57:40.136Z,7.20
2019-02-20T08:00:10.563Z,7.20
2019-02-20T08:02:39.479Z,7.20
2019-02-20T08:05:08.117Z,7.30
2019-02-20T08:07:36.860Z,7.30
2019-02-20T08:10:06.873Z,7.30
2019-02-20T08:12:35.514Z,7.40
2019-02-20T08:15:04.200Z,7.50
2019-02-20T08:17:52.197Z,7.50
2019-02-20T08:20:21.087Z,7.60
2019-02-20T08:22:49.676Z,7.60
2019-02-20T08:25:22.789Z,7.60
2019-02-20T08:27:48.902Z,7.60
2019-02-20T08:30:17.618Z,7.70
2019-02-20T08:32:46.191Z,7.70
2019-02-20T08:35:15.085Z,7.70
2019-02-20T08:37:43.791Z,7.70
2019-02-20T08:40:14.197Z,7.70
2019-02-20T08:42:45.037Z,7.80
2019-02-20T08:45:13.741Z,7.80
2019-02-20T08:47:42.369Z,7.80
2019-02-20T08:50:11.411Z,7.90
2019-02-20T08:52:41.245Z,7.90
2019-02-20T08:55:09.897Z,7.90
2019-02-20T08:57:38.569Z,8.00
2019-02-20T09:00:09.628Z,8.00
2019-02-20T09:02:40.062Z,8.00
2019-02-20T09:05:08.762Z,8.00
2019-02-20T09:07:37.466Z,8.00
2019-02-20T09:10:06.648Z,8.10
2019-02-20T09:12:35.248Z,8.10
2019-02-20T09:15:16.880Z,8.20
2019-02-20T09:17:45.463Z,8.20
2019-02-20T09:20:14.085Z,8.20
2019-02-20T09:22:42.836Z,8.30
2019-02-20T09:25:19.537Z,8.40
2019-02-20T09:27:42.155Z,8.40
2019-02-20T09:30:12.349Z,8.40
2019-02-20T09:32:40.963Z,8.50
2019-02-20T09:35:09.601Z,8.60
2019-02-20T09:37:38.312Z,8.70
2019-02-20T09:40:09.173Z,8.70
2019-02-20T09:42:39.584Z,8.80
2019-02-20T09:45:08.311Z,8.80
2019-02-20T09:47:37.340Z,9.00
2019-02-20T09:50:05.969Z,9.00
2019-02-20T09:52:34.539Z,9.10
2019-02-20T09:55:22.481Z,9.20
2019-02-20T09:57:54.133Z,9.20
2019-02-20T10:00:23.070Z,9.30
2019-02-20T10:02:51.690Z,9.30
2019-02-20T10:05:20.268Z,9.50
2019-02-20T10:07:48.904Z,9.60
2019-02-20T10:10:17.556Z,9.60
2019-02-20T10:12:46.197Z,9.70
2019-02-20T10:15:14.976Z,9.80
2019-02-20T10:17:43.647Z,9.90
2019-02-20T10:20:12.243Z,9.80
2019-02-20T10:23:00.169Z,9.90
2019-02-20T10:25:28.780Z,9.90
2019-02-20T10:27:57.425Z,10.10
2019-02-20T10:30:26.012Z,10.20
2019-02-20T10:32:54.621Z,10.30
2019-02-20T10:35:28.971Z,10.30
2019-02-20T10:37:57.556Z,10.30
2019-02-20T10:40:26.511Z,10.30
2019-02-20T10:42:55.231Z,10.20
2019-02-20T10:45:23.831Z,10.20
2019-02-20T10:47:52.423Z,10.20
2019-02-20T10:50:21.073Z,10.10
2019-02-20T10:52:49.684Z,10.10
2019-02-20T10:55:18.412Z,10.10
2019-02-20T10:57:47.060Z,10.20
2019-02-20T11:00:23.970Z,10.20
2019-02-20T11:02:50.913Z,10.20
2019-02-20T11:05:19.639Z,10.30
2019-02-20T11:07:48.256Z,10.50
2019-02-20T11:10:17.012Z,10.60
2019-02-20T11:12:45.617Z,10.60
2019-02-20T11:15:14.293Z,10.50
2019-02-20T11:17:43.008Z,10.50
2019-02-20T11:20:13.694Z,10.60
2019-02-20T11:22:42.551Z,10.60
2019-02-20T11:25:11.542Z,10.60
2019-02-20T11:27:40.149Z,10.60
2019-02-20T11:30:11.739Z,10.60
2019-02-20T11:32:40.398Z,10.60
2019-02-20T11:35:09.040Z,10.60
2019-02-20T11:37:37.693Z,10.60
2019-02-20T11:40:07.124Z,10.60
2019-02-20T11:42:35.761Z,10.60
2019-02-20T11:45:04.553Z,10.70
2019-02-20T11:47:33.665Z,10.70
2019-02-20T11:50:03.683Z,10.80
2019-02-20T11:52:38.112Z,10.70
2019-02-20T11:55:05.510Z,10.70
2019-02-20T11:58:02.222Z,10.80
2019-02-20T12:00:50.209Z,10.80
2019-02-20T12:03:18.836Z,10.80
2019-02-20T12:05:47.449Z,10.80
2019-02-20T12:08:17.135Z,10.80
2019-02-20T12:10:47.368Z,10.80
2019-02-20T12:13:16.047Z,10.80
2019-02-20T12:15:44.668Z,10.90
2019-02-20T12:18:17.353Z,10.90
2019-02-20T12:20:43.951Z,10.90
2019-02-20T12:23:12.543Z,10.90
2019-02-20T12:25:41.163Z,10.90
2019-02-20T12:28:09.735Z,11.00
2019-02-20T12:30:38.347Z,11.00
2019-02-20T12:33:07.017Z,11.00
2019-02-20T12:35:35.624Z,11.00
2019-02-20T12:38:04.205Z,11.10
2019-02-20T12:40:32.824Z,11.10
2019-02-20T12:43:01.583Z,11.10
2019-02-20T12:45:31.285Z,11.20
2019-02-20T12:47:59.986Z,11.20
2019-02-20T12:50:28.593Z,11.10
2019-02-20T12:52:57.192Z,11.20
2019-02-20T12:55:25.845Z,11.20
2019-02-20T12:57:54.441Z,11.30
2019-02-20T13:00:23.227Z,11.30
2019-02-20T13:02:52.096Z,11.30
2019-02-20T13:05:20.916Z,11.30
2019-02-20T13:07:49.555Z,11.30
2019-02-20T13:10:18.151Z,11.40
2019-02-20T13:12:46.863Z,11.50
2019-02-20T13:15:15.793Z,11.60
2019-02-20T13:17:44.411Z,11.60
2019-02-20T13:20:13.017Z,11.70
2019-02-20T13:22:41.682Z,11.70
2019-02-20T13:25:10.380Z,11.60
2019-02-20T13:27:40.266Z,11.50
2019-02-20T13:30:09.452Z,11.50
2019-02-20T13:32:38.087Z,11.60
2019-02-20T13:35:06.937Z,11.60
2019-02-20T13:37:35.614Z,11.60
2019-02-20T13:40:04.344Z,11.70
2019-02-20T13:42:33.044Z,11.70
2019-02-20T13:45:01.817Z,11.70
2019-02-20T13:47:30.928Z,11.80
2019-02-20T13:49:59.576Z,11.80
2019-02-20T13:52:28.237Z,11.70
2019-02-20T13:54:58.708Z,11.80
2019-02-20T13:57:27.330Z,11.70
2019-02-20T13:59:55.962Z,11.70
2019-02-20T14:02:24.555Z,11.80
2019-02-20T14:04:53.496Z,11.80
2019-02-20T14:07:22.136Z,11.80
2019-02-20T14:09:50.760Z,11.80
2019-02-20T14:12:20.629Z,11.80
2019-02-20T14:14:49.359Z,11.70
2019-02-20T14:17:26.205Z,11.60
2019-02-20T14:19:48.416Z,11.60
2019-02-20T14:22:20.806Z,11.50
2019-02-20T14:24:49.623Z,11.50
2019-02-20T14:27:18.720Z,11.50
2019-02-20T14:29:47.407Z,11.50
2019-02-20T14:32:16.372Z,11.50
2019-02-20T14:34:45.562Z,11.50
2019-02-20T14:37:15.535Z,11.40
2019-02-20T14:39:44.125Z,11.30
2019-02-20T14:42:13.198Z,11.30
2019-02-20T14:44:41.784Z,11.30
2019-02-20T14:47:10.402Z,11.30
2019-02-20T14:49:39.110Z,11.30
2019-02-20T14:52:07.768Z,11.30
2019-02-20T14:54:36.607Z,11.30
2019-02-20T14:57:05.290Z,11.30
2019-02-20T14:59:53.522Z,11.30
2019-02-20T15:02:22.091Z,11.30
2019-02-20T15:04:50.751Z,11.40
2019-02-20T15:07:38.789Z,11.40
2019-02-20T15:10:07.864Z,11.50
2019-02-20T15:12:36.500Z,11.50
2019-02-20T15:15:10.630Z,11.50
2019-02-20T15:17:35.723Z,11.50
2019-02-20T15:20:04.458Z,11.50
2019-02-20T15:22:33.421Z,11.40
2019-02-20T15:25:06.129Z,11.40
2019-02-20T15:27:34.812Z,11.40
2019-02-20T15:30:04.380Z,11.30
2019-02-20T15:32:33.059Z,11.30
2019-02-20T15:35:03.047Z,11.40
2019-02-20T15:37:32.116Z,11.40
2019-02-20T15:40:00.874Z,11.30
2019-02-20T15:42:29.485Z,11.30
2019-02-20T15:44:58.178Z,11.30
2019-02-20T15:47:26.769Z,11.20
2019-02-20T15:49:55.401Z,11.20
2019-02-20T15:52:24.090Z,11.20
2019-02-20T15:54:53.162Z,11.10
2019-02-20T15:57:21.786Z,11.10
2019-02-20T15:59:50.643Z,11.10
2019-02-20T16:02:19.235Z,11.00
2019-02-20T16:04:47.843Z,11.00
2019-02-20T16:07:16.792Z,11.00
2019-02-20T16:09:48.405Z,10.90
2019-02-20T16:12:20.299Z,10.90
2019-02-20T16:14:48.933Z,10.80
2019-02-20T16:17:17.515Z,10.80
2019-02-20T16:19:46.117Z,10.80
2019-02-20T16:22:14.784Z,10.70
2019-02-20T16:24:43.364Z,10.70
2019-02-20T16:27:12.288Z,10.70
2019-02-20T16:29:40.916Z,10.70
2019-02-20T16:32:09.511Z,10.70
2019-02-20T16:34:41.120Z,10.60
2019-02-20T16:37:09.733Z,10.60
2019-02-20T16:39:38.361Z,10.60
2019-02-20T16:42:07.343Z,10.60
2019-02-20T16:44:35.941Z,10.60
2019-02-20T16:47:05.762Z,10.60
2019-02-20T16:49:53.653Z,10.60
2019-02-20T16:52:22.246Z,10.50
2019-02-20T16:54:51.248Z,10.50
2019-02-20T16:57:19.893Z,10.50
2019-02-20T16:59:48.498Z,10.50
2019-02-20T17:02:19.260Z,10.50
2019-02-20T17:04:47.840Z,10.50
2019-02-20T17:07:19.155Z,10.40
2019-02-20T17:09:48.129Z,10.40
2019-02-20T17:12:17.788Z,10.40
2019-02-20T17:14:46.422Z,10.40
2019-02-20T17:17:16.653Z,10.30
2019-02-20T17:19:45.235Z,10.30
2019-02-20T17:22:13.832Z,10.30
2019-02-20T17:24:42.709Z,10.20
2019-02-20T17:27:11.293Z,10.20
2019-02-20T17:29:39.960Z,10.10
2019-02-20T17:32:08.645Z,10.00
2019-02-20T17:34:37.226Z,10.00
2019-02-20T17:37:05.824Z,10.00
2019-02-20T17:39:34.407Z,9.90
2019-02-20T17:42:03.255Z,9.80
2019-02-20T17:44:31.848Z,9.60
2019-02-20T17:47:00.424Z,9.50
2019-02-20T17:49:29.058Z,9.50
2019-02-20T17:51:57.652Z,9.40
2019-02-20T17:54:26.257Z,9.40
2019-02-20T17:56:55.047Z,9.30
2019-02-20T17:59:23.651Z,9.30
2019-02-20T18:01:52.243Z,9.20
2019-02-20T18:04:20.846Z,9.10
2019-02-20T18:06:49.700Z,9.00
2019-02-20T18:09:18.318Z,9.00
2019-02-20T18:11:46.905Z,9.00
2019-02-20T18:14:15.540Z,8.90
2019-02-20T18:16:44.132Z,8.90
2019-02-20T18:19:12.703Z,8.90
2019-02-20T18:21:41.683Z,8.80
2019-02-20T18:24:10.351Z,8.80
2019-02-20T18:26:38.950Z,8.70
2019-02-20T18:29:26.850Z,8.70
2019-02-20T18:31:55.482Z,8.60
2019-02-20T18:34:24.323Z,8.60
2019-02-20T18:36:52.915Z,8.60
2019-02-20T18:39:21.507Z,8.60
2019-02-20T18:41:50.087Z,8.50
2019-02-20T18:44:18.698Z,8.50
2019-02-20T18:46:47.286Z,8.50
2019-02-20T18:49:20.934Z,8.50
2019-02-20T18:51:49.015Z,8.40
2019-02-20T18:54:17.618Z,8.30
2019-02-20T18:56:46.204Z,8.40
2019-02-20T18:59:15.831Z,8.20
2019-02-20T19:01:44.411Z,8.20
2019-02-20T19:04:13.246Z,8.10
2019-02-20T19:06:41.885Z,8.10
2019-02-20T19:09:17.974Z,8.10
2019-02-20T19:12:08.905Z,8.00
2019-02-20T19:15:04.758Z,8.00
2019-02-20T19:18:04.333Z,8.00
2019-02-20T19:20:57.226Z,7.90
2019-02-20T19:24:41.113Z,7.90
2019-02-20T19:27:34.885Z,7.80
2019-02-20T19:30:44.460Z,7.80
2019-02-20T19:33:36.341Z,7.80
2019-02-20T19:36:29.252Z,7.80
2019-02-20T19:39:27.028Z,7.70
2019-02-20T19:42:36.214Z,7.60
2019-02-20T19:45:39.343Z,7.60
2019-02-20T19:48:52.385Z,7.60
2019-02-20T19:52:11.677Z,7.60
2019-02-20T19:54:45.090Z,7.60
2019-02-20T19:57:39.049Z,7.60
2019-02-20T20:00:22.561Z,7.50
2019-02-20T20:03:13.943Z,7.50
2019-02-20T20:06:26.044Z,7.50
2019-02-20T20:09:16.391Z,7.50
2019-02-20T20:12:35.241Z,7.50
2019-02-20T20:15:22.718Z,7.40
2019-02-20T20:18:41.103Z,7.40
2019-02-20T20:21:22.192Z,7.40
2019-02-20T20:24:26.869Z,7.30
2019-02-20T20:27:22.041Z,7.30
2019-02-20T20:30:40.790Z,7.30
2019-02-20T20:33:40.704Z,7.30
2019-02-20T20:36:40.495Z,7.30
2019-02-20T20:40:11.883Z,7.20
2019-02-20T20:43:04.149Z,7.20
2019-02-20T20:46:13.287Z,7.20
2019-02-20T20:49:13.444Z,7.20
2019-02-20T20:52:18.685Z,7.20
2019-02-20T20:55:10.150Z,7.20
2019-02-20T20:58:09.235Z,7.30
2019-02-20T21:01:11.305Z,7.30
2019-02-20T21:03:54.284Z,7.30
2019-02-20T21:06:40.288Z,7.20
2019-02-20T21:09:28.817Z,7.30
2019-02-20T21:12:31.395Z,7.20
2019-02-20T21:15:20.224Z,7.20
2019-02-20T21:18:25.495Z,7.20
2019-02-20T21:21:03.118Z,7.20
2019-02-20T21:23:58.729Z,7.10
2019-02-20T21:26:55.902Z,7.10
2019-02-20T21:29:52.157Z,7.10
2019-02-20T21:32:45.883Z,7.10
2019-02-20T21:36:03.677Z,7.10
2019-02-20T21:39:25.412Z,7.10
2019-02-20T21:42:09.978Z,7.10
2019-02-20T21:44:56.372Z,7.10
2019-02-20T21:47:57.823Z,7.10
2019-02-20T21:50:42.052Z,7.00
2019-02-20T21:53:56.420Z,7.00
2019-02-20T21:57:02.334Z,7.00
2019-02-20T21:59:46.138Z,6.90
2019-02-20T22:02:53.319Z,6.90
2019-02-20T22:05:41.790Z,6.90
2019-02-20T22:08:23.824Z,6.90
2019-02-20T22:11:17.565Z,6.90
2019-02-20T22:14:16.535Z,6.90
2019-02-20T22:17:17.915Z,6.90
2019-02-20T22:20:23.830Z,6.90
2019-02-20T22:23:21.494Z,6.90
2019-02-20T22:26:17.836Z,6.90
2019-02-20T22:29:31.351Z,6.90
2019-02-20T22:32:40.797Z,6.90
2019-02-20T22:35:59.917Z,6.90
2019-02-20T22:39:02.079Z,7.00
2019-02-20T22:42:07.817Z,7.00
2019-02-20T22:45:22.929Z,7.10
2019-02-20T22:48:26.740Z,7.20
2019-02-20T22:51:21.947Z,7.20
2019-02-20T22:54:03.970Z,7.20
2019-02-20T22:57:04.030Z,7.20
2019-02-20T23:00:19.854Z,7.30
2019-02-20T23:03:19.955Z,7.30
2019-02-20T23:06:17.538Z,7.30
2019-02-20T23:09:33.592Z,7.30
2019-02-20T23:12:17.002Z,7.30
2019-02-20T23:14:56.344Z,7.30
2019-02-20T23:17:27.072Z,7.40
2019-02-20T23:19:55.715Z,7.40
2019-02-20T23:22:24.347Z,7.40
2019-02-20T23:24:52.964Z,7.40
2019-02-20T23:27:21.548Z,7.50
2019-02-20T23:29:50.279Z,7.50
2019-02-20T23:32:18.902Z,7.50
2019-02-20T23:34:47.488Z,7.50
2019-02-20T23:37:16.147Z,7.60
2019-02-20T23:39:44.837Z,7.50
2019-02-20T23:42:13.417Z,7.60
2019-02-20T23:44:42.116Z,7.60
2019-02-20T23:47:11.089Z,7.60
2019-02-20T23:49:39.698Z,7.60
2019-02-20T23:52:08.279Z,7.60
2019-02-20T23:54:37.161Z,7.60
2019-02-20T23:57:05.827Z,7.60
2019-02-20T23:59:34.436Z,7.60
